sensor_id;sensor_type;location;lat;lon;timestamp;P1;durP1;ratioP1;P2;durP2;ratioP2
77854;SDS011;67046;50.088;14.336;2023-03-05T00:00:31;21.40;;;10.70;;
77854;SDS011;67046;50.088;14.336;2023-03-05T00:01:27;18.70;;;9.80;;
77854;SDS011;67046;50.088;14.336;2023-03-05T00:02:06;16.60;;;9.10;;
77854;SDS011;67046;50.088;14.336;2023-03-05T00:02:38;15.40;;;9.30;;
77854;SDS011;67046;50.088;14.336;2023-03-05T00:03:10;16.10;;;9.30;;
77854;SDS011;67046;50.088;14.336;2023-03-05T00:03:42;13.60;;;8.80;;
77854;SDS011;67046;50.088;14.336;2023-03-05T00:04:46;17.70;;;9.20;;
77854;SDS011;67046;50.088;14.336;2023-03-05T00:05:18;13.60;;;8.40;;
77854;SDS011;67046;50.088;14.336;2023-03-05T00:05:54;17.60;;;10.20;;
77854;SDS011;67046;50.088;14.336;2023-03-05T00:06:28;19.90;;;9.40;;
77854;SDS011;67046;50.088;14.336;2023-03-05T00:07:01;19.20;;;9.10;;
77854;SDS011;67046;50.088;14.336;2023-03-05T00:07:33;17.90;;;10.20;;
77854;SDS011;67046;50.088;14.336;2023-03-05T00:08:05;16.10;;;9.70;;
77854;SDS011;67046;50.088;14.336;2023-03-05T00:08:37;16.80;;;10.20;;
77854;SDS011;67046;50.088;14.336;2023-03-05T00:09:41;19.10;;;9.50;;
77854;SDS011;67046;50.088;14.336;2023-03-05T00:10:13;17.90;;;9.30;;
77854;SDS011;67046;50.088;14.336;2023-03-05T00:10:45;19.40;;;9.80;;
77854;SDS011;67046;50.088;14.336;2023-03-05T00:11:39;18.80;;;9.60;;
77854;SDS011;67046;50.088;14.336;2023-03-05T00:12:11;18.30;;;9.20;;
77854;SDS011;67046;50.088;14.336;2023-03-05T00:12:43;17.90;;;10.60;;
77854;SDS011;67046;50.088;14.336;2023-03-05T00:13:15;17.50;;;10.50;;
77854;SDS011;67046;50.088;14.336;2023-03-05T00:13:47;17.40;;;10.70;;
77854;SDS011;67046;50.088;14.336;2023-03-05T00:14:22;17.80;;;9.80;;
77854;SDS011;67046;50.088;14.336;2023-03-05T00:14:54;17.30;;;9.90;;
77854;SDS011;67046;50.088;14.336;2023-03-05T00:15:26;16.20;;;10.20;;
77854;SDS011;67046;50.088;14.336;2023-03-05T00:15:58;15.30;;;9.60;;
77854;SDS011;67046;50.088;14.336;2023-03-05T00:16:32;17.90;;;9.10;;
77854;SDS011;67046;50.088;14.336;2023-03-05T00:17:04;17.80;;;10.00;;
77854;SDS011;67046;50.088;14.336;2023-03-05T00:17:36;17.00;;;9.70;;
77854;SDS011;67046;50.088;14.336;2023-03-05T00:18:08;16.50;;;10.90;;
77854;SDS011;67046;50.088;14.336;2023-03-05T00:18:40;18.90;;;10.60;;
77854;SDS011;67046;50.088;14.336;2023-03-05T00:19:12;16.60;;;10.20;;
77854;SDS011;67046;50.088;14.336;2023-03-05T00:19:44;14.60;;;8.50;;
77854;SDS011;67046;50.088;14.336;2023-03-05T00:20:16;15.70;;;9.40;;
77854;SDS011;67046;50.088;14.336;2023-03-05T00:20:48;15.80;;;10.10;;
77854;SDS011;67046;50.088;14.336;2023-03-05T00:21:30;16.10;;;9.60;;
77854;SDS011;67046;50.088;14.336;2023-03-05T00:22:08;16.50;;;8.80;;
77854;SDS011;67046;50.088;14.336;2023-03-05T00:22:40;15.70;;;9.40;;
77854;SDS011;67046;50.088;14.336;2023-03-05T00:23:12;16.70;;;9.70;;
77854;SDS011;67046;50.088;14.336;2023-03-05T00:23:44;15.10;;;9.50;;
77854;SDS011;67046;50.088;14.336;2023-03-05T00:24:16;16.60;;;10.00;;
77854;SDS011;67046;50.088;14.336;2023-03-05T00:24:49;18.70;;;9.40;;
77854;SDS011;67046;50.088;14.336;2023-03-05T00:25:22;18.10;;;9.50;;
77854;SDS011;67046;50.088;14.336;2023-03-05T00:25:54;15.30;;;9.90;;
77854;SDS011;67046;50.088;14.336;2023-03-05T00:26:26;17.80;;;9.50;;
77854;SDS011;67046;50.088;14.336;2023-03-05T00:27:00;15.30;;;9.20;;
77854;SDS011;67046;50.088;14.336;2023-03-05T00:27:32;13.60;;;9.20;;
77854;SDS011;67046;50.088;14.336;2023-03-05T00:28:04;15.60;;;8.90;;
77854;SDS011;67046;50.088;14.336;2023-03-05T00:28:36;15.60;;;9.50;;
77854;SDS011;67046;50.088;14.336;2023-03-05T00:29:08;21.10;;;11.40;;
77854;SDS011;67046;50.088;14.336;2023-03-05T00:29:43;18.50;;;9.50;;
77854;SDS011;67046;50.088;14.336;2023-03-05T00:30:15;15.90;;;9.40;;
77854;SDS011;67046;50.088;14.336;2023-03-05T00:30:47;16.70;;;9.80;;
77854;SDS011;67046;50.088;14.336;2023-03-05T00:31:19;18.20;;;9.80;;
77854;SDS011;67046;50.088;14.336;2023-03-05T00:31:53;18.90;;;10.40;;
77854;SDS011;67046;50.088;14.336;2023-03-05T00:32:25;15.20;;;9.70;;
77854;SDS011;67046;50.088;14.336;2023-03-05T00:32:57;18.00;;;10.10;;
77854;SDS011;67046;50.088;14.336;2023-03-05T00:33:29;16.80;;;9.70;;
77854;SDS011;67046;50.088;14.336;2023-03-05T00:34:06;17.00;;;9.80;;
77854;SDS011;67046;50.088;14.336;2023-03-05T00:34:41;14.30;;;9.60;;
77854;SDS011;67046;50.088;14.336;2023-03-05T00:35:13;19.50;;;10.00;;
77854;SDS011;67046;50.088;14.336;2023-03-05T00:35:45;16.50;;;10.20;;
77854;SDS011;67046;50.088;14.336;2023-03-05T00:36:17;16.50;;;10.20;;
77854;SDS011;67046;50.088;14.336;2023-03-05T00:36:50;15.80;;;9.20;;
77854;SDS011;67046;50.088;14.336;2023-03-05T00:37:22;19.90;;;11.00;;
77854;SDS011;67046;50.088;14.336;2023-03-05T00:37:54;18.50;;;11.30;;
77854;SDS011;67046;50.088;14.336;2023-03-05T00:38:27;18.10;;;9.60;;
77854;SDS011;67046;50.088;14.336;2023-03-05T00:39:00;19.10;;;10.40;;
77854;SDS011;67046;50.088;14.336;2023-03-05T00:39:32;17.60;;;10.60;;
77854;SDS011;67046;50.088;14.336;2023-03-05T00:40:04;21.50;;;10.90;;
77854;SDS011;67046;50.088;14.336;2023-03-05T00:40:37;18.30;;;10.20;;
77854;SDS011;67046;50.088;14.336;2023-03-05T00:41:10;18.20;;;10.20;;
77854;SDS011;67046;50.088;14.336;2023-03-05T00:41:42;18.40;;;10.50;;
77854;SDS011;67046;50.088;14.336;2023-03-05T00:42:14;17.20;;;10.60;;
77854;SDS011;67046;50.088;14.336;2023-03-05T00:42:46;17.30;;;10.70;;
77854;SDS011;67046;50.088;14.336;2023-03-05T00:43:18;17.10;;;9.70;;
77854;SDS011;67046;50.088;14.336;2023-03-05T00:43:50;18.40;;;10.20;;
77854;SDS011;67046;50.088;14.336;2023-03-05T00:44:22;18.40;;;10.10;;
77854;SDS011;67046;50.088;14.336;2023-03-05T00:44:54;17.30;;;10.00;;
77854;SDS011;67046;50.088;14.336;2023-03-05T00:45:26;17.30;;;9.90;;
77854;SDS011;67046;50.088;14.336;2023-03-05T00:45:58;14.70;;;9.40;;
77854;SDS011;67046;50.088;14.336;2023-03-05T00:46:30;18.00;;;10.60;;
77854;SDS011;67046;50.088;14.336;2023-03-05T00:47:02;16.30;;;10.60;;
77854;SDS011;67046;50.088;14.336;2023-03-05T00:47:35;17.40;;;9.60;;
77854;SDS011;67046;50.088;14.336;2023-03-05T00:48:08;21.60;;;10.70;;
77854;SDS011;67046;50.088;14.336;2023-03-05T00:48:40;18.60;;;10.30;;
77854;SDS011;67046;50.088;14.336;2023-03-05T00:49:12;21.30;;;11.60;;
77854;SDS011;67046;50.088;14.336;2023-03-05T00:49:44;19.10;;;10.90;;
77854;SDS011;67046;50.088;14.336;2023-03-05T00:50:16;17.50;;;10.40;;
77854;SDS011;67046;50.088;14.336;2023-03-05T00:50:48;18.00;;;10.50;;
77854;SDS011;67046;50.088;14.336;2023-03-05T00:51:20;18.70;;;10.90;;
77854;SDS011;67046;50.088;14.336;2023-03-05T00:51:52;19.00;;;10.50;;
77854;SDS011;67046;50.088;14.336;2023-03-05T00:52:24;19.50;;;11.50;;
77854;SDS011;67046;50.088;14.336;2023-03-05T00:52:56;16.90;;;10.50;;
77854;SDS011;67046;50.088;14.336;2023-03-05T00:53:28;17.20;;;10.30;;
77854;SDS011;67046;50.088;14.336;2023-03-05T00:54:01;21.60;;;10.50;;
77854;SDS011;67046;50.088;14.336;2023-03-05T00:54:33;18.10;;;9.80;;
77854;SDS011;67046;50.088;14.336;2023-03-05T00:55:05;17.20;;;10.10;;
77854;SDS011;67046;50.088;14.336;2023-03-05T00:55:37;19.70;;;9.90;;
77854;SDS011;67046;50.088;14.336;2023-03-05T00:56:09;15.60;;;9.90;;
77854;SDS011;67046;50.088;14.336;2023-03-05T00:56:41;15.20;;;8.90;;
77854;SDS011;67046;50.088;14.336;2023-03-05T00:57:13;14.80;;;8.30;;
77854;SDS011;67046;50.088;14.336;2023-03-05T00:57:45;14.50;;;8.60;;
77854;SDS011;67046;50.088;14.336;2023-03-05T00:58:17;14.50;;;9.00;;
77854;SDS011;67046;50.088;14.336;2023-03-05T00:58:49;13.70;;;7.50;;
77854;SDS011;67046;50.088;14.336;2023-03-05T00:59:21;14.70;;;8.60;;
77854;SDS011;67046;50.088;14.336;2023-03-05T00:59:53;16.00;;;9.70;;
77854;SDS011;67046;50.088;14.336;2023-03-05T01:00:25;17.40;;;8.90;;
77854;SDS011;67046;50.088;14.336;2023-03-05T01:00:58;17.10;;;9.10;;
77854;SDS011;67046;50.088;14.336;2023-03-05T01:01:30;15.40;;;8.80;;
77854;SDS011;67046;50.088;14.336;2023-03-05T01:02:02;17.00;;;9.30;;
77854;SDS011;67046;50.088;14.336;2023-03-05T01:02:34;18.30;;;9.20;;
77854;SDS011;67046;50.088;14.336;2023-03-05T01:03:06;20.20;;;10.20;;
77854;SDS011;67046;50.088;14.336;2023-03-05T01:04:11;12.60;;;8.10;;
77854;SDS011;67046;50.088;14.336;2023-03-05T01:04:43;18.30;;;8.80;;
77854;SDS011;67046;50.088;14.336;2023-03-05T01:05:17;14.60;;;8.10;;
77854;SDS011;67046;50.088;14.336;2023-03-05T01:05:49;15.10;;;8.40;;
77854;SDS011;67046;50.088;14.336;2023-03-05T01:06:21;13.70;;;7.40;;
77854;SDS011;67046;50.088;14.336;2023-03-05T01:06:53;15.10;;;8.60;;
77854;SDS011;67046;50.088;14.336;2023-03-05T01:07:25;11.50;;;6.60;;
77854;SDS011;67046;50.088;14.336;2023-03-05T01:07:57;13.30;;;7.10;;
77854;SDS011;67046;50.088;14.336;2023-03-05T01:08:29;12.60;;;6.50;;
77854;SDS011;67046;50.088;14.336;2023-03-05T01:09:01;12.80;;;7.10;;
77854;SDS011;67046;50.088;14.336;2023-03-05T01:09:33;10.50;;;6.40;;
77854;SDS011;67046;50.088;14.336;2023-03-05T01:10:05;10.90;;;6.40;;
77854;SDS011;67046;50.088;14.336;2023-03-05T01:10:39;13.40;;;7.30;;
77854;SDS011;67046;50.088;14.336;2023-03-05T01:11:11;12.90;;;6.70;;
77854;SDS011;67046;50.088;14.336;2023-03-05T01:11:43;11.00;;;6.40;;
77854;SDS011;67046;50.088;14.336;2023-03-05T01:12:15;13.30;;;7.50;;
77854;SDS011;67046;50.088;14.336;2023-03-05T01:12:47;11.60;;;6.20;;
77854;SDS011;67046;50.088;14.336;2023-03-05T01:13:20;11.40;;;7.00;;
77854;SDS011;67046;50.088;14.336;2023-03-05T01:13:52;12.70;;;6.90;;
77854;SDS011;67046;50.088;14.336;2023-03-05T01:14:24;15.50;;;7.20;;
77854;SDS011;67046;50.088;14.336;2023-03-05T01:14:58;12.90;;;6.40;;
77854;SDS011;67046;50.088;14.336;2023-03-05T01:15:30;12.50;;;6.80;;
77854;SDS011;67046;50.088;14.336;2023-03-05T01:16:02;11.70;;;6.70;;
77854;SDS011;67046;50.088;14.336;2023-03-05T01:16:34;10.90;;;5.70;;
77854;SDS011;67046;50.088;14.336;2023-03-05T01:17:06;12.00;;;6.20;;
77854;SDS011;67046;50.088;14.336;2023-03-05T01:17:39;12.20;;;5.90;;
77854;SDS011;67046;50.088;14.336;2023-03-05T01:18:11;11.70;;;6.10;;
77854;SDS011;67046;50.088;14.336;2023-03-05T01:18:43;13.40;;;6.10;;
77854;SDS011;67046;50.088;14.336;2023-03-05T01:19:15;10.90;;;6.20;;
77854;SDS011;67046;50.088;14.336;2023-03-05T01:19:47;10.40;;;6.30;;
77854;SDS011;67046;50.088;14.336;2023-03-05T01:20:20;9.60;;;5.30;;
77854;SDS011;67046;50.088;14.336;2023-03-05T01:20:53;12.10;;;6.30;;
77854;SDS011;67046;50.088;14.336;2023-03-05T01:21:25;10.20;;;6.10;;
77854;SDS011;67046;50.088;14.336;2023-03-05T01:21:57;11.30;;;6.30;;
77854;SDS011;67046;50.088;14.336;2023-03-05T01:22:30;12.00;;;6.60;;
77854;SDS011;67046;50.088;14.336;2023-03-05T01:23:02;11.20;;;6.80;;
77854;SDS011;67046;50.088;14.336;2023-03-05T01:23:34;11.40;;;6.20;;
77854;SDS011;67046;50.088;14.336;2023-03-05T01:24:07;10.10;;;6.00;;
77854;SDS011;67046;50.088;14.336;2023-03-05T01:24:39;11.00;;;6.30;;
77854;SDS011;67046;50.088;14.336;2023-03-05T01:25:12;11.70;;;6.40;;
77854;SDS011;67046;50.088;14.336;2023-03-05T01:25:45;12.60;;;6.70;;
77854;SDS011;67046;50.088;14.336;2023-03-05T01:26:17;11.80;;;6.00;;
77854;SDS011;67046;50.088;14.336;2023-03-05T01:26:49;11.20;;;6.00;;
77854;SDS011;67046;50.088;14.336;2023-03-05T01:27:21;13.70;;;6.50;;
77854;SDS011;67046;50.088;14.336;2023-03-05T01:27:53;12.30;;;6.90;;
77854;SDS011;67046;50.088;14.336;2023-03-05T01:28:27;11.60;;;6.30;;
77854;SDS011;67046;50.088;14.336;2023-03-05T01:28:59;12.60;;;6.10;;
77854;SDS011;67046;50.088;14.336;2023-03-05T01:29:31;10.30;;;5.90;;
77854;SDS011;67046;50.088;14.336;2023-03-05T01:30:03;11.70;;;6.90;;
77854;SDS011;67046;50.088;14.336;2023-03-05T01:30:36;10.00;;;5.90;;
77854;SDS011;67046;50.088;14.336;2023-03-05T01:31:08;10.90;;;5.30;;
77854;SDS011;67046;50.088;14.336;2023-03-05T01:31:42;11.00;;;6.50;;
77854;SDS011;67046;50.088;14.336;2023-03-05T01:32:45;10.20;;;5.60;;
77854;SDS011;67046;50.088;14.336;2023-03-05T01:33:18;11.20;;;6.20;;
77854;SDS011;67046;50.088;14.336;2023-03-05T01:33:53;11.10;;;6.30;;
77854;SDS011;67046;50.088;14.336;2023-03-05T01:34:25;13.20;;;5.80;;
77854;SDS011;67046;50.088;14.336;2023-03-05T01:34:57;14.70;;;6.00;;
77854;SDS011;67046;50.088;14.336;2023-03-05T01:35:30;10.20;;;5.60;;
77854;SDS011;67046;50.088;14.336;2023-03-05T01:36:05;9.90;;;6.10;;
77854;SDS011;67046;50.088;14.336;2023-03-05T01:36:41;8.80;;;5.50;;
77854;SDS011;67046;50.088;14.336;2023-03-05T01:37:13;10.10;;;6.10;;
77854;SDS011;67046;50.088;14.336;2023-03-05T01:37:46;9.40;;;5.80;;
77854;SDS011;67046;50.088;14.336;2023-03-05T01:38:18;10.10;;;6.40;;
77854;SDS011;67046;50.088;14.336;2023-03-05T01:38:50;12.00;;;6.00;;
77854;SDS011;67046;50.088;14.336;2023-03-05T01:39:54;11.60;;;5.90;;
77854;SDS011;67046;50.088;14.336;2023-03-05T01:40:27;10.90;;;6.20;;
77854;SDS011;67046;50.088;14.336;2023-03-05T01:41:01;10.80;;;5.90;;
77854;SDS011;67046;50.088;14.336;2023-03-05T01:41:33;12.30;;;6.80;;
77854;SDS011;67046;50.088;14.336;2023-03-05T01:42:06;11.20;;;6.40;;
77854;SDS011;67046;50.088;14.336;2023-03-05T01:42:38;11.30;;;6.70;;
77854;SDS011;67046;50.088;14.336;2023-03-05T01:43:43;15.80;;;7.80;;
77854;SDS011;67046;50.088;14.336;2023-03-05T01:44:26;14.50;;;8.10;;
77854;SDS011;67046;50.088;14.336;2023-03-05T01:45:03;13.10;;;7.20;;
77854;SDS011;67046;50.088;14.336;2023-03-05T01:45:36;15.80;;;7.00;;
77854;SDS011;67046;50.088;14.336;2023-03-05T01:46:29;13.00;;;8.10;;
77854;SDS011;67046;50.088;14.336;2023-03-05T01:47:10;14.50;;;7.60;;
77854;SDS011;67046;50.088;14.336;2023-03-05T01:47:42;11.70;;;6.80;;
77854;SDS011;67046;50.088;14.336;2023-03-05T01:48:14;13.50;;;7.10;;
77854;SDS011;67046;50.088;14.336;2023-03-05T01:48:50;12.90;;;7.30;;
77854;SDS011;67046;50.088;14.336;2023-03-05T01:49:36;16.80;;;7.50;;
77854;SDS011;67046;50.088;14.336;2023-03-05T01:50:12;13.60;;;7.70;;
77854;SDS011;67046;50.088;14.336;2023-03-05T01:50:47;13.10;;;7.30;;
77854;SDS011;67046;50.088;14.336;2023-03-05T01:51:20;12.10;;;7.00;;
77854;SDS011;67046;50.088;14.336;2023-03-05T01:52:13;12.80;;;8.00;;
77854;SDS011;67046;50.088;14.336;2023-03-05T01:52:49;13.70;;;8.30;;
77854;SDS011;67046;50.088;14.336;2023-03-05T01:53:25;14.10;;;8.10;;
77854;SDS011;67046;50.088;14.336;2023-03-05T01:53:57;14.30;;;8.50;;
77854;SDS011;67046;50.088;14.336;2023-03-05T01:54:32;16.80;;;10.20;;
77854;SDS011;67046;50.088;14.336;2023-03-05T01:55:13;18.30;;;9.40;;
77854;SDS011;67046;50.088;14.336;2023-03-05T01:56:19;15.00;;;8.30;;
77854;SDS011;67046;50.088;14.336;2023-03-05T01:56:52;17.30;;;9.00;;
77854;SDS011;67046;50.088;14.336;2023-03-05T01:57:31;13.50;;;9.60;;
77854;SDS011;67046;50.088;14.336;2023-03-05T01:58:07;15.20;;;8.70;;
77854;SDS011;67046;50.088;14.336;2023-03-05T01:58:42;14.40;;;8.10;;
77854;SDS011;67046;50.088;14.336;2023-03-05T01:59:15;13.40;;;8.60;;
77854;SDS011;67046;50.088;14.336;2023-03-05T01:59:49;15.70;;;9.50;;
77854;SDS011;67046;50.088;14.336;2023-03-05T02:01:36;15.00;;;8.40;;
77854;SDS011;67046;50.088;14.336;2023-03-05T02:02:11;14.90;;;8.60;;
77854;SDS011;67046;50.088;14.336;2023-03-05T02:02:45;20.60;;;10.50;;
77854;SDS011;67046;50.088;14.336;2023-03-05T02:03:19;16.90;;;8.90;;
77854;SDS011;67046;50.088;14.336;2023-03-05T02:03:53;13.50;;;8.80;;
77854;SDS011;67046;50.088;14.336;2023-03-05T02:04:28;16.10;;;8.80;;
77854;SDS011;67046;50.088;14.336;2023-03-05T02:05:09;15.20;;;8.80;;
77854;SDS011;67046;50.088;14.336;2023-03-05T02:05:43;20.30;;;9.30;;
77854;SDS011;67046;50.088;14.336;2023-03-05T02:06:47;15.70;;;8.30;;
77854;SDS011;67046;50.088;14.336;2023-03-05T02:07:20;16.10;;;8.50;;
77854;SDS011;67046;50.088;14.336;2023-03-05T02:08:04;16.10;;;9.10;;
77854;SDS011;67046;50.088;14.336;2023-03-05T02:08:41;15.80;;;8.30;;
77854;SDS011;67046;50.088;14.336;2023-03-05T02:09:13;14.00;;;7.80;;
77854;SDS011;67046;50.088;14.336;2023-03-05T02:09:45;13.90;;;8.00;;
77854;SDS011;67046;50.088;14.336;2023-03-05T02:10:18;14.30;;;8.10;;
77854;SDS011;67046;50.088;14.336;2023-03-05T02:10:56;13.20;;;8.30;;
77854;SDS011;67046;50.088;14.336;2023-03-05T02:11:28;11.70;;;8.20;;
77854;SDS011;67046;50.088;14.336;2023-03-05T02:12:32;11.80;;;7.70;;
77854;SDS011;67046;50.088;14.336;2023-03-05T02:13:06;12.70;;;7.50;;
77854;SDS011;67046;50.088;14.336;2023-03-05T02:13:42;11.20;;;6.60;;
77854;SDS011;67046;50.088;14.336;2023-03-05T02:14:14;14.40;;;7.60;;
77854;SDS011;67046;50.088;14.336;2023-03-05T02:14:47;12.00;;;7.20;;
77854;SDS011;67046;50.088;14.336;2023-03-05T02:15:22;11.50;;;7.10;;
77854;SDS011;67046;50.088;14.336;2023-03-05T02:16:28;11.10;;;5.90;;
77854;SDS011;67046;50.088;14.336;2023-03-05T02:17:06;9.40;;;6.70;;
77854;SDS011;67046;50.088;14.336;2023-03-05T02:17:39;10.60;;;6.20;;
77854;SDS011;67046;50.088;14.336;2023-03-05T02:18:43;14.20;;;6.80;;
77854;SDS011;67046;50.088;14.336;2023-03-05T02:19:15;11.20;;;6.30;;
77854;SDS011;67046;50.088;14.336;2023-03-05T02:19:52;12.60;;;6.80;;
77854;SDS011;67046;50.088;14.336;2023-03-05T02:20:30;12.20;;;6.40;;
77854;SDS011;67046;50.088;14.336;2023-03-05T02:21:13;9.40;;;6.10;;
77854;SDS011;67046;50.088;14.336;2023-03-05T02:21:58;10.10;;;5.40;;
77854;SDS011;67046;50.088;14.336;2023-03-05T02:22:30;12.20;;;5.70;;
77854;SDS011;67046;50.088;14.336;2023-03-05T02:23:02;10.30;;;5.30;;
77854;SDS011;67046;50.088;14.336;2023-03-05T02:23:35;12.00;;;5.80;;
77854;SDS011;67046;50.088;14.336;2023-03-05T02:24:12;9.00;;;5.40;;
77854;SDS011;67046;50.088;14.336;2023-03-05T02:24:46;9.70;;;5.50;;
77854;SDS011;67046;50.088;14.336;2023-03-05T02:25:19;10.10;;;6.40;;
77854;SDS011;67046;50.088;14.336;2023-03-05T02:25:54;9.40;;;5.20;;
77854;SDS011;67046;50.088;14.336;2023-03-05T02:26:26;9.00;;;5.10;;
77854;SDS011;67046;50.088;14.336;2023-03-05T02:26:58;9.00;;;5.20;;
77854;SDS011;67046;50.088;14.336;2023-03-05T02:27:31;9.40;;;5.10;;
77854;SDS011;67046;50.088;14.336;2023-03-05T02:28:49;8.80;;;5.30;;
77854;SDS011;67046;50.088;14.336;2023-03-05T02:29:03;7.30;;;4.40;;
77854;SDS011;67046;50.088;14.336;2023-03-05T02:29:40;8.90;;;4.90;;
77854;SDS011;67046;50.088;14.336;2023-03-05T02:30:15;5.60;;;4.00;;
77854;SDS011;67046;50.088;14.336;2023-03-05T02:30:47;6.70;;;4.10;;
77854;SDS011;67046;50.088;14.336;2023-03-05T02:31:20;7.90;;;4.20;;
77854;SDS011;67046;50.088;14.336;2023-03-05T02:31:54;7.70;;;4.50;;
77854;SDS011;67046;50.088;14.336;2023-03-05T02:32:57;8.60;;;4.60;;
77854;SDS011;67046;50.088;14.336;2023-03-05T02:33:29;7.40;;;4.30;;
77854;SDS011;67046;50.088;14.336;2023-03-05T02:34:01;8.80;;;4.80;;
77854;SDS011;67046;50.088;14.336;2023-03-05T02:34:34;8.20;;;4.10;;
77854;SDS011;67046;50.088;14.336;2023-03-05T02:35:06;9.60;;;4.90;;
77854;SDS011;67046;50.088;14.336;2023-03-05T02:35:39;9.70;;;5.20;;
77854;SDS011;67046;50.088;14.336;2023-03-05T02:36:11;8.50;;;4.60;;
77854;SDS011;67046;50.088;14.336;2023-03-05T02:36:43;6.80;;;4.40;;
77854;SDS011;67046;50.088;14.336;2023-03-05T02:37:15;7.30;;;4.50;;
77854;SDS011;67046;50.088;14.336;2023-03-05T02:37:47;8.50;;;4.80;;
77854;SDS011;67046;50.088;14.336;2023-03-05T02:38:19;8.20;;;4.50;;
77854;SDS011;67046;50.088;14.336;2023-03-05T02:39:24;9.60;;;5.00;;
77854;SDS011;67046;50.088;14.336;2023-03-05T02:39:56;8.50;;;4.40;;
77854;SDS011;67046;50.088;14.336;2023-03-05T02:40:27;6.90;;;4.20;;
77854;SDS011;67046;50.088;14.336;2023-03-05T02:40:59;6.50;;;3.80;;
77854;SDS011;67046;50.088;14.336;2023-03-05T02:41:31;8.00;;;4.40;;
77854;SDS011;67046;50.088;14.336;2023-03-05T02:42:03;8.40;;;4.60;;
77854;SDS011;67046;50.088;14.336;2023-03-05T02:42:36;6.60;;;4.50;;
77854;SDS011;67046;50.088;14.336;2023-03-05T02:43:08;7.20;;;4.00;;
77854;SDS011;67046;50.088;14.336;2023-03-05T02:43:41;6.70;;;4.10;;
77854;SDS011;67046;50.088;14.336;2023-03-05T02:44:13;7.70;;;3.90;;
77854;SDS011;67046;50.088;14.336;2023-03-05T02:44:45;6.90;;;4.40;;
77854;SDS011;67046;50.088;14.336;2023-03-05T02:45:17;8.60;;;4.50;;
77854;SDS011;67046;50.088;14.336;2023-03-05T02:45:49;8.20;;;4.30;;
77854;SDS011;67046;50.088;14.336;2023-03-05T02:46:21;8.60;;;4.80;;
77854;SDS011;67046;50.088;14.336;2023-03-05T02:46:53;8.50;;;4.50;;
77854;SDS011;67046;50.088;14.336;2023-03-05T02:47:25;6.00;;;3.80;;
77854;SDS011;67046;50.088;14.336;2023-03-05T02:47:58;7.90;;;4.40;;
77854;SDS011;67046;50.088;14.336;2023-03-05T02:48:30;7.30;;;4.40;;
77854;SDS011;67046;50.088;14.336;2023-03-05T02:49:03;7.70;;;4.30;;
77854;SDS011;67046;50.088;14.336;2023-03-05T02:49:34;7.60;;;4.90;;
77854;SDS011;67046;50.088;14.336;2023-03-05T02:50:07;8.20;;;4.40;;
77854;SDS011;67046;50.088;14.336;2023-03-05T02:50:40;10.10;;;4.80;;
77854;SDS011;67046;50.088;14.336;2023-03-05T02:51:14;9.90;;;5.60;;
77854;SDS011;67046;50.088;14.336;2023-03-05T02:51:46;7.80;;;4.50;;
77854;SDS011;67046;50.088;14.336;2023-03-05T02:52:18;8.20;;;4.80;;
77854;SDS011;67046;50.088;14.336;2023-03-05T02:52:51;9.70;;;4.90;;
77854;SDS011;67046;50.088;14.336;2023-03-05T02:53:23;8.70;;;4.80;;
77854;SDS011;67046;50.088;14.336;2023-03-05T02:53:56;9.50;;;5.00;;
77854;SDS011;67046;50.088;14.336;2023-03-05T02:54:28;9.60;;;5.20;;
77854;SDS011;67046;50.088;14.336;2023-03-05T02:55:00;6.60;;;4.10;;
77854;SDS011;67046;50.088;14.336;2023-03-05T02:55:32;7.40;;;4.20;;
77854;SDS011;67046;50.088;14.336;2023-03-05T02:56:05;9.00;;;4.50;;
77854;SDS011;67046;50.088;14.336;2023-03-05T02:57:10;5.60;;;3.70;;
77854;SDS011;67046;50.088;14.336;2023-03-05T02:57:42;8.10;;;4.10;;
77854;SDS011;67046;50.088;14.336;2023-03-05T02:58:14;6.80;;;4.30;;
77854;SDS011;67046;50.088;14.336;2023-03-05T02:58:47;7.20;;;3.60;;
77854;SDS011;67046;50.088;14.336;2023-03-05T02:59:18;5.80;;;4.20;;
77854;SDS011;67046;50.088;14.336;2023-03-05T02:59:50;8.80;;;4.10;;
77854;SDS011;67046;50.088;14.336;2023-03-05T03:00:23;6.70;;;4.30;;
77854;SDS011;67046;50.088;14.336;2023-03-05T03:00:56;6.90;;;4.20;;
77854;SDS011;67046;50.088;14.336;2023-03-05T03:01:28;7.90;;;4.40;;
77854;SDS011;67046;50.088;14.336;2023-03-05T03:02:00;8.10;;;4.40;;
77854;SDS011;67046;50.088;14.336;2023-03-05T03:02:32;7.40;;;4.50;;
77854;SDS011;67046;50.088;14.336;2023-03-05T03:03:05;7.50;;;4.90;;
77854;SDS011;67046;50.088;14.336;2023-03-05T03:03:37;7.60;;;4.50;;
77854;SDS011;67046;50.088;14.336;2023-03-05T03:04:09;6.00;;;4.40;;
77854;SDS011;67046;50.088;14.336;2023-03-05T03:04:42;7.10;;;4.00;;
77854;SDS011;67046;50.088;14.336;2023-03-05T03:05:14;9.70;;;5.80;;
77854;SDS011;67046;50.088;14.336;2023-03-05T03:05:46;9.50;;;4.80;;
77854;SDS011;67046;50.088;14.336;2023-03-05T03:06:18;8.70;;;4.20;;
77854;SDS011;67046;50.088;14.336;2023-03-05T03:06:50;7.10;;;4.70;;
77854;SDS011;67046;50.088;14.336;2023-03-05T03:07:22;7.00;;;4.40;;
77854;SDS011;67046;50.088;14.336;2023-03-05T03:07:54;7.90;;;4.60;;
77854;SDS011;67046;50.088;14.336;2023-03-05T03:08:26;8.30;;;3.90;;
77854;SDS011;67046;50.088;14.336;2023-03-05T03:08:58;9.00;;;5.50;;
77854;SDS011;67046;50.088;14.336;2023-03-05T03:09:30;8.00;;;4.90;;
77854;SDS011;67046;50.088;14.336;2023-03-05T03:10:05;8.50;;;4.50;;
77854;SDS011;67046;50.088;14.336;2023-03-05T03:10:38;8.20;;;4.50;;
77854;SDS011;67046;50.088;14.336;2023-03-05T03:11:10;7.90;;;4.00;;
77854;SDS011;67046;50.088;14.336;2023-03-05T03:11:43;6.40;;;4.80;;
77854;SDS011;67046;50.088;14.336;2023-03-05T03:12:15;7.70;;;4.20;;
77854;SDS011;67046;50.088;14.336;2023-03-05T03:12:47;7.30;;;4.40;;
77854;SDS011;67046;50.088;14.336;2023-03-05T03:13:19;6.20;;;3.60;;
77854;SDS011;67046;50.088;14.336;2023-03-05T03:13:51;7.60;;;3.70;;
77854;SDS011;67046;50.088;14.336;2023-03-05T03:14:23;7.90;;;4.00;;
77854;SDS011;67046;50.088;14.336;2023-03-05T03:14:55;6.50;;;4.40;;
77854;SDS011;67046;50.088;14.336;2023-03-05T03:15:27;7.40;;;4.50;;
77854;SDS011;67046;50.088;14.336;2023-03-05T03:16:32;7.10;;;4.00;;
77854;SDS011;67046;50.088;14.336;2023-03-05T03:17:37;8.40;;;4.30;;
77854;SDS011;67046;50.088;14.336;2023-03-05T03:18:09;7.40;;;4.20;;
77854;SDS011;67046;50.088;14.336;2023-03-05T03:18:41;7.80;;;4.60;;
77854;SDS011;67046;50.088;14.336;2023-03-05T03:19:14;8.10;;;4.50;;
77854;SDS011;67046;50.088;14.336;2023-03-05T03:19:46;7.90;;;4.10;;
77854;SDS011;67046;50.088;14.336;2023-03-05T03:20:19;8.50;;;4.70;;
77854;SDS011;67046;50.088;14.336;2023-03-05T03:20:51;7.00;;;4.30;;
77854;SDS011;67046;50.088;14.336;2023-03-05T03:21:23;8.10;;;4.50;;
77854;SDS011;67046;50.088;14.336;2023-03-05T03:21:57;10.60;;;5.00;;
77854;SDS011;67046;50.088;14.336;2023-03-05T03:22:29;8.80;;;5.00;;
77854;SDS011;67046;50.088;14.336;2023-03-05T03:23:01;7.80;;;4.50;;
77854;SDS011;67046;50.088;14.336;2023-03-05T03:23:33;8.80;;;4.70;;
77854;SDS011;67046;50.088;14.336;2023-03-05T03:24:05;9.30;;;4.30;;
77854;SDS011;67046;50.088;14.336;2023-03-05T03:24:38;6.20;;;4.20;;
77854;SDS011;67046;50.088;14.336;2023-03-05T03:25:18;8.10;;;4.30;;